Terminal Aerodrome Forecast
Issued by NWS

Home | Current Version | Previous Version | Text Only | Print | Product List | Glossary Off
Versions: 1 2 3 4 5 6 7 8 9 10 11 12 13 14 15 16 17 18

004
FTUS43 KMPX 081542 AAA
TAFAXN
TAF AMD
KAXN 081542Z 0816/0912 33020G30KT 5SM -SN BLSN SCT015 BKN025
      TEMPO 0816/0819 2SM -SN BLSN BKN015
     FM082200 33011G22KT P6SM BKN035=

USA.gov is the U.S. government's official web portal to all federal, state and local government web resources and services.